Racecast

Deanna McCloud

Temperance Bedford (MI) · 10 · SECMI D1MONROE · Compare head to head

Athlete rating 90.3 2022 XC season
Best race 101.3 XC
Races 34
Seasons 5 2018 — 2022

RankedNation #110372·MI #4898·MI D1 #2660·SEC #222·Team #90 ?

Rating scale ?
Speed rating — all races

Cross Country

XC speed rating

2022 XC 82.4

Temperance Bedford (MI) · Grade 10

Date Meet Event Result Place Rating Difficulty PR/SR Flags
2022-10-29 Milan HS OFFICIAL 5000m 27:39.9 101st · 13th on team 90.3 +0.008 ★CR CSR
2022-10-20 Hudson Mills Metropark - OFFICIAL 5000m 26:48.2 110th · 13th on team 91.7 -0.006 ★PR ★CR SR CSR RSR
2022-10-15 Munson Park 5000m 30:06.3 43rd · 11th on team +0.007 ★CR CSR
2022-09-28 Pioneer HS 5000m 28:24.7 57th · 5th on team 88.6 +0.018 PR ★CR SR CSR RSR
2022-09-14 Ella Sharp Park OFFICIAL 5000m 32:28.3 92nd · 8th on team 77.1 -0.001 PR ★CR SR CSR RSR
2022-09-10 Hedges Boyer Park 5000m 33:58.7 203rd · 3rd on team 73.6 -0.003 PR ★CR SR CSR RSR
2022-08-27 Defiance High School 5000m 34:19 165th · 21st on team 73.1 +0.010 PR ★CR SR CSR RSR

2021 XC

Temperance Bedford (MI) · Grade 9

Date Meet Event Result Place Rating Difficulty PR/SR Flags
2021-08-28 Defiance High School 5000m 37:10.6 154th · 23rd on team +0.010 PR CR SR CSR

2020 XC 81.9

Temperance Bedford (MI) · Grade 8

Date Meet Event Result Place Rating Difficulty PR/SR Flags
2020-10-14 Indian Creek OFFICIAL 3200m 20:23.2 40th · 26th on team 81.9 -0.001 ★CR SR CSR
2020-10-07 Hudson Mills Metropark - OFFICIAL 3218m 22:25.2 42nd · 26th on team 78.5 +0.020 CSR
2020-09-24 Indian Creek OFFICIAL 3200m 20:41 39th · 28th on team 82.3 -0.001 CR SR CSR
2020-09-19 Indian Creek OFFICIAL 3218m 20:13 37th · 27th on team 82.9 -0.001 ★CR SR CSR
2020-09-16 Rolling Hills 3218m 21:15.1 36th · 29th on team 83.6 +0.023 ★CR SR CSR RSR

2018 XC 96.5

Temperance Bedford (MI) · Grade 6

Date Meet Event Result Place Rating Difficulty PR/SR Flags
2018-10-13 Munson Park 3200m 16:26.7 64th · 24th on team 101.0 +0.000 ★CR CSR
2018-10-10 Saline High School 3200m 16:25.7 33rd · 13th on team 101.3 -0.021 ★PR ★CR ★R SR CSR RSR
2018-10-06 Munson Park 3218m 16:58.9 63rd · 21st on team 100.0 +0.000 ★PR ★CR R SR CSR RSR
2018-09-29 Lake Erie Metro Park OFFICIAL 3218m 17:16 133rd · 26th on team 97.3 -0.000 ★CR R CSR RSR
2018-09-25 Hudson Mills Metropark - OFFICIAL 3218m 17:47.6 31st · 13th on team 95.9 +0.020 ★CR CSR
2018-09-15 Ottawa Park Golf Course 3200m 19:05.2 56th · 27th on team 90.7 +0.027 PR ★CR SR CSR
2018-09-12 Tecumseh HS 3218m 17:06.5 46th · 21st on team 96.7 -0.008 PR ★CR R SR CSR RSR
2018-08-30 Eastwood HS 3200m 19:09 114th · 23rd on team 89.0 +0.017 PR ★CR R SR CSR RSR

Track & Field

TF speed rating

2021 TF

Temperance Bedford (MI) · Grade 8

Date Meet Event Result Place Rating Difficulty PR/SR Flags
2021-05-10 Adrian MS @ Bedford MS 70m 12.94 22nd · 10th on team -0.026 SR
2021-05-06 Bedford JH @ Monroe MS lj 7-04.50 -0.022
2021-05-06 Bedford JH @ Monroe MS 100m 19.16 12th · 8th on team -0.022 SR
2021-05-06 Bedford JH @ Monroe MS 70m 16.54 15th · 12th on team -0.022
2021-05-03 Lincoln MS vs Bedford MS 70m 13.24 12th · 7th on team -0.021
2021-04-29 Dexter MS @ Bedford MS lj 7'05.00 -0.026
2021-04-29 Dexter MS @ Bedford MS 70m 13.24 24th · 10th on team -0.026 SR
2021-04-22 Tecumseh Meet 70m 13:05.24 12th · 12th on team -0.020 SR
2021-04-19 SEC-MS: Bedford 200m 37.04 12th · 12th on team -0.026 ★PR SR

2019 TF

Temperance Bedford (MI) · Grade 6

Date Meet Event Result Place Rating Difficulty PR/SR Flags
2019-05-13 Lincoln MS @ Bedford MS 100m 18.27 41st · 17th on team -0.026
2019-05-06 Ypsilanti MS @ Bedford 70m 12.46 16th · 10th on team -0.026
2019-04-22 SEC-MS: Adrian @ Bedford 70m 12.06 18th · 9th on team -0.026 ★PR SR
2019-04-22 SEC-MS: Adrian @ Bedford 100m 17.94 22nd · 9th on team -0.026 ★PR SR